Currently 85°F in Temecula, California, USA
85°F
85°F / 55°F
2 mph NW
0.00"
Monday, May 25, 2020 11:42 AM PDT

Temecula, California Weather Summary
Last 36 Hours

Temperature Winds Hourly Humidity Dewpoint
Time Report Norm Report Norm Max Gusts Precip. Rpt. Norm Rpt. Norm Pressure
1,2Mon 11:42 AM  85.0°F  71°F  2 mph NW  6 mph  10 mph  0.00"  40%  59%  57°F  56°F  29.88"
Mon 11:00 AM  80.4°F  69°F  4 mph SW  5 mph  7 mph  0.00"  49%  63%  59°F  56°F  29.89"
Mon 10:00 AM  73.2°F  65°F  2 mph S  4 mph  6 mph  0.00"  66%  73%  61°F  56°F  29.90"
Mon 09:00 AM  66.2°F  61°F  1 mph S  3 mph  5 mph  0.00"  81%  82%  60°F  55°F  29.91"
Mon 08:00 AM  60.7°F  57°F  1 mph W  2 mph  4 mph  0.00"  90%  90%  58°F  54°F  29.92"
Mon 07:00 AM  56.4°F  55°F  calm  2 mph  1 mph  0.00"  95%  93%  55°F  53°F  29.91"
3Mon 06:04 AM  55.3°F  55°F  calm  1 mph  none  ----  95%  93%  54°F  53°F  29.91"
Mon 06:00 AM  55.4°F  55°F  calm  1 mph  none  0.00"  95%  93%  54°F  53°F  29.91"
Mon 05:00 AM  56.3°F  55°F  calm  1 mph  none  0.00"  95%  93%  55°F  53°F  29.89"
Mon 04:00 AM  58.1°F  56°F  calm  1 mph  3 mph  0.00"  95%  92%  57°F  53°F  29.88"
Mon 03:00 AM  58.8°F  56°F  1 mph SE  1 mph  5 mph  0.00"  95%  92%  57°F  54°F  29.89"
Mon 02:00 AM  59.4°F  57°F  3 mph W  2 mph  7 mph  0.00"  95%  91%  58°F  54°F  29.88"
Mon 01:00 AM  60.5°F  57°F  calm  2 mph  7 mph  0.00"  93%  90%  58°F  54°F  29.91"
Mon 12:00 AM  61.5°F  58°F  4 mph S  2 mph  10 mph  0.00"  91%  89%  59°F  54°F  29.91"
Sun 11:00 PM  63.4°F  59°F  4 mph S  2 mph  6 mph  0.00"  86%  87%  59°F  55°F  29.91"
Sun 10:00 PM  64.2°F  60°F  1 mph W  3 mph  3 mph  0.00"  86%  84%  60°F  55°F  29.90"
Sun 09:00 PM  65.4°F  61°F  calm  4 mph  4 mph  0.00"  83%  80%  60°F  55°F  29.89"
Sun 08:00 PM  67.3°F  63°F  2 mph NW  5 mph  7 mph  0.00"  78%  75%  60°F  55°F  29.88"
Sun 07:00 PM  72.3°F  67°F  1 mph SW  7 mph  11 mph  0.00"  68%  67%  61°F  55°F  29.83"
Sun 06:00 PM  74.9°F  71°F  7 mph SW  9 mph  16 mph  0.00"  64%  60%  61°F  55°F  29.82"
Sun 05:00 PM  79.2°F  73°F  7 mph SW  10 mph  18 mph  0.00"  57%  55%  62°F  55°F  29.82"
Sun 04:00 PM  82.7°F  75°F  7 mph S  10 mph  15 mph  0.00"  50%  52%  62°F  56°F  29.83"
Sun 03:00 PM  83.0°F  75°F  7 mph SW  10 mph  12 mph  0.00"  46%  52%  60°F  56°F  29.85"
Sun 02:00 PM  82.6°F  75°F  6 mph SW  9 mph  13 mph  0.00"  44%  52%  58°F  56°F  29.88"
Sun 01:00 PM  81.8°F  74°F  5 mph SW  8 mph  12 mph  0.00"  46%  54%  58°F  56°F  29.89"
Sun 12:00 PM  79.7°F  72°F  4 mph SW  7 mph  9 mph  0.00"  51%  57%  60°F  56°F  29.91"
Sun 11:00 AM  75.2°F  69°F  3 mph SW  5 mph  6 mph  0.00"  58%  64%  59°F  56°F  29.93"
Sun 10:00 AM  68.8°F  65°F  1 mph W  4 mph  7 mph  0.00"  72%  73%  59°F  55°F  29.95"
Sun 09:00 AM  62.6°F  61°F  3 mph SW  3 mph  6 mph  0.00"  84%  83%  57°F  55°F  29.96"
Sun 08:00 AM  57.9°F  58°F  2 mph W  2 mph  6 mph  0.00"  90%  89%  55°F  54°F  29.96"
Sun 07:00 AM  53.7°F  55°F  2 mph W  2 mph  3 mph  0.00"  95%  93%  52°F  53°F  29.96"
Sun 06:00 AM  53.3°F  55°F  calm  1 mph  none  0.00"  94%  93%  51°F  53°F  29.96"
Sun 05:00 AM  54.3°F  55°F  calm  1 mph  1 mph  0.00"  93%  93%  52°F  53°F  29.94"
Sun 04:00 AM  54.6°F  56°F  calm  1 mph  2 mph  0.00"  92%  92%  52°F  53°F  29.94"
Sun 03:00 AM  56.5°F  56°F  calm  1 mph  4 mph  0.00"  91%  91%  54°F  54°F  29.93"
Sun 02:00 AM  56.6°F  57°F  2 mph S  2 mph  4 mph  0.00"  91%  91%  54°F  54°F  29.93"
Sun 01:00 AM  57.2°F  57°F  calm  2 mph  4 mph  0.00"  88%  90%  54°F  54°F  29.93"
Sun 12:00 AM  58.4°F  58°F  1 mph SE  2 mph  4 mph  0.00"  86%  89%  54°F  54°F  29.94"

  1. Current weather data. No green row appears if the current weather data is also the high or low for the current day.
  2. High temperature for the current day.
  3. Low temperature for the current day.

The Temecula weather pages are a service of WeatherCurrents. Temecula, California is located in the Temecula Valley, in southwestern Riverside County, along the Interstate 15 highway. The Temecula Valley's rolling hills are home to the Temecula wine country, vineyards, golf courses, a casino resort, and Old Town Temecula.
Copyright ©2020  WeatherCurrents. All rights reserved. - Submit questions and comments - Privacy Policy

This page automatically refreshes every 10 minutes.